sensor_id;sensor_type;location;lat;lon;timestamp;P1;durP1;ratioP1;P2;durP2;ratioP2
63016;SDS011;50274;45.640;11.756;2022-12-07T00:01:42;20.20;;;12.98;;
63016;SDS011;50274;45.640;11.756;2022-12-07T00:04:10;22.85;;;14.40;;
63016;SDS011;50274;45.640;11.756;2022-12-07T00:06:41;22.30;;;14.45;;
63016;SDS011;50274;45.640;11.756;2022-12-07T00:09:10;20.70;;;12.60;;
63016;SDS011;50274;45.640;11.756;2022-12-07T00:11:37;21.83;;;14.07;;
63016;SDS011;50274;45.640;11.756;2022-12-07T00:14:05;22.77;;;12.57;;
63016;SDS011;50274;45.640;11.756;2022-12-07T00:16:32;22.45;;;13.48;;
63016;SDS011;50274;45.640;11.756;2022-12-07T00:18:59;21.60;;;12.80;;
63016;SDS011;50274;45.640;11.756;2022-12-07T00:21:29;22.35;;;13.55;;
63016;SDS011;50274;45.640;11.756;2022-12-07T00:24:00;22.40;;;13.40;;
63016;SDS011;50274;45.640;11.756;2022-12-07T00:26:28;20.73;;;13.27;;
63016;SDS011;50274;45.640;11.756;2022-12-07T00:28:58;21.13;;;13.63;;
63016;SDS011;50274;45.640;11.756;2022-12-07T00:31:27;18.80;;;11.85;;
63016;SDS011;50274;45.640;11.756;2022-12-07T00:33:54;20.05;;;11.98;;
63016;SDS011;50274;45.640;11.756;2022-12-07T00:36:21;18.17;;;11.47;;
63016;SDS011;50274;45.640;11.756;2022-12-07T00:38:48;17.17;;;12.15;;
63016;SDS011;50274;45.640;11.756;2022-12-07T00:41:15;18.63;;;12.07;;
63016;SDS011;50274;45.640;11.756;2022-12-07T00:43:43;21.80;;;13.35;;
63016;SDS011;50274;45.640;11.756;2022-12-07T00:46:10;20.55;;;13.30;;
63016;SDS011;50274;45.640;11.756;2022-12-07T00:48:37;18.93;;;11.33;;
63016;SDS011;50274;45.640;11.756;2022-12-07T00:51:03;17.35;;;11.18;;
63016;SDS011;50274;45.640;11.756;2022-12-07T00:53:30;17.00;;;10.77;;
63016;SDS011;50274;45.640;11.756;2022-12-07T00:55:56;18.15;;;12.02;;
63016;SDS011;50274;45.640;11.756;2022-12-07T00:58:22;19.80;;;12.07;;
63016;SDS011;50274;45.640;11.756;2022-12-07T01:00:49;20.30;;;11.35;;
63016;SDS011;50274;45.640;11.756;2022-12-07T01:03:17;18.42;;;12.10;;
63016;SDS011;50274;45.640;11.756;2022-12-07T01:05:50;17.65;;;11.23;;
63016;SDS011;50274;45.640;11.756;2022-12-07T01:08:17;18.88;;;11.85;;
63016;SDS011;50274;45.640;11.756;2022-12-07T01:10:43;19.80;;;12.97;;
63016;SDS011;50274;45.640;11.756;2022-12-07T01:13:11;13.90;;;10.60;;
63016;SDS011;50274;45.640;11.756;2022-12-07T01:15:44;16.80;;;10.70;;
63016;SDS011;50274;45.640;11.756;2022-12-07T01:18:10;15.15;;;10.45;;
63016;SDS011;50274;45.640;11.756;2022-12-07T01:20:36;17.98;;;11.13;;
63016;SDS011;50274;45.640;11.756;2022-12-07T01:23:02;18.33;;;10.33;;
63016;SDS011;50274;45.640;11.756;2022-12-07T01:25:28;16.90;;;11.20;;
63016;SDS011;50274;45.640;11.756;2022-12-07T01:27:54;14.80;;;10.73;;
63016;SDS011;50274;45.640;11.756;2022-12-07T01:30:20;15.23;;;11.13;;
63016;SDS011;50274;45.640;11.756;2022-12-07T01:32:49;15.60;;;10.07;;
63016;SDS011;50274;45.640;11.756;2022-12-07T01:35:15;16.33;;;10.70;;
63016;SDS011;50274;45.640;11.756;2022-12-07T01:37:41;16.05;;;10.07;;
63016;SDS011;50274;45.640;11.756;2022-12-07T01:40:07;14.10;;;9.33;;
63016;SDS011;50274;45.640;11.756;2022-12-07T01:42:34;14.55;;;10.13;;
63016;SDS011;50274;45.640;11.756;2022-12-07T01:47:46;16.38;;;10.43;;
63016;SDS011;50274;45.640;11.756;2022-12-07T01:50:17;13.87;;;8.57;;
63016;SDS011;50274;45.640;11.756;2022-12-07T01:52:44;14.93;;;9.77;;
63016;SDS011;50274;45.640;11.756;2022-12-07T01:55:14;15.10;;;9.70;;
63016;SDS011;50274;45.640;11.756;2022-12-07T01:57:45;16.70;;;10.32;;
63016;SDS011;50274;45.640;11.756;2022-12-07T02:00:16;15.23;;;9.18;;
63016;SDS011;50274;45.640;11.756;2022-12-07T02:02:44;14.73;;;8.63;;
63016;SDS011;50274;45.640;11.756;2022-12-07T02:05:13;15.57;;;9.75;;
63016;SDS011;50274;45.640;11.756;2022-12-07T02:07:39;15.10;;;9.35;;
63016;SDS011;50274;45.640;11.756;2022-12-07T02:12:47;13.15;;;8.65;;
63016;SDS011;50274;45.640;11.756;2022-12-07T02:15:18;12.60;;;8.63;;
63016;SDS011;50274;45.640;11.756;2022-12-07T02:17:49;13.38;;;9.05;;
63016;SDS011;50274;45.640;11.756;2022-12-07T02:21:10;13.82;;;9.65;;
63016;SDS011;50274;45.640;11.756;2022-12-07T02:28:31;13.60;;;9.27;;
63016;SDS011;50274;45.640;11.756;2022-12-07T02:31:05;15.00;;;9.70;;
63016;SDS011;50274;45.640;11.756;2022-12-07T02:33:37;17.02;;;9.95;;
63016;SDS011;50274;45.640;11.756;2022-12-07T02:36:12;17.52;;;10.82;;
63016;SDS011;50274;45.640;11.756;2022-12-07T02:38:51;15.52;;;10.25;;
63016;SDS011;50274;45.640;11.756;2022-12-07T02:41:29;17.63;;;10.37;;
63016;SDS011;50274;45.640;11.756;2022-12-07T02:44:21;15.15;;;9.95;;
63016;SDS011;50274;45.640;11.756;2022-12-07T02:47:03;14.23;;;9.68;;
63016;SDS011;50274;45.640;11.756;2022-12-07T02:49:32;13.45;;;9.35;;
63016;SDS011;50274;45.640;11.756;2022-12-07T02:51:58;15.43;;;9.90;;
63016;SDS011;50274;45.640;11.756;2022-12-07T02:54:24;15.37;;;9.53;;
63016;SDS011;50274;45.640;11.756;2022-12-07T03:00:03;15.88;;;10.52;;
63016;SDS011;50274;45.640;11.756;2022-12-07T03:03:04;19.45;;;12.20;;
63016;SDS011;50274;45.640;11.756;2022-12-07T03:08:50;17.67;;;10.00;;
63016;SDS011;50274;45.640;11.756;2022-12-07T03:11:56;16.02;;;10.90;;
63016;SDS011;50274;45.640;11.756;2022-12-07T03:14:25;16.27;;;9.90;;
63016;SDS011;50274;45.640;11.756;2022-12-07T03:19:44;14.20;;;8.63;;
63016;SDS011;50274;45.640;11.756;2022-12-07T03:22:14;13.77;;;8.67;;
63016;SDS011;50274;45.640;11.756;2022-12-07T03:24:51;14.50;;;9.13;;
63016;SDS011;50274;45.640;11.756;2022-12-07T03:27:27;13.20;;;8.80;;
63016;SDS011;50274;45.640;11.756;2022-12-07T03:30:10;14.85;;;9.23;;
63016;SDS011;50274;45.640;11.756;2022-12-07T03:35:20;14.37;;;8.60;;
63016;SDS011;50274;45.640;11.756;2022-12-07T03:37:58;15.23;;;8.70;;
63016;SDS011;50274;45.640;11.756;2022-12-07T03:43:15;17.85;;;9.68;;
63016;SDS011;50274;45.640;11.756;2022-12-07T03:45:43;14.63;;;8.95;;
63016;SDS011;50274;45.640;11.756;2022-12-07T03:53:46;16.40;;;8.80;;
63016;SDS011;50274;45.640;11.756;2022-12-07T03:56:19;16.50;;;9.90;;
63016;SDS011;50274;45.640;11.756;2022-12-07T03:58:47;15.20;;;9.82;;
63016;SDS011;50274;45.640;11.756;2022-12-07T04:01:13;18.87;;;9.93;;
63016;SDS011;50274;45.640;11.756;2022-12-07T04:03:39;16.67;;;9.60;;
63016;SDS011;50274;45.640;11.756;2022-12-07T04:06:05;15.90;;;8.77;;
63016;SDS011;50274;45.640;11.756;2022-12-07T04:08:31;13.80;;;7.73;;
63016;SDS011;50274;45.640;11.756;2022-12-07T04:10:57;13.98;;;8.60;;
63016;SDS011;50274;45.640;11.756;2022-12-07T04:13:23;14.90;;;9.15;;
63016;SDS011;50274;45.640;11.756;2022-12-07T04:15:48;15.37;;;8.90;;
63016;SDS011;50274;45.640;11.756;2022-12-07T04:18:14;15.80;;;8.93;;
63016;SDS011;50274;45.640;11.756;2022-12-07T04:20:40;16.50;;;9.02;;
63016;SDS011;50274;45.640;11.756;2022-12-07T04:23:06;13.77;;;8.07;;
63016;SDS011;50274;45.640;11.756;2022-12-07T04:25:32;14.05;;;8.23;;
63016;SDS011;50274;45.640;11.756;2022-12-07T04:27:58;14.07;;;8.20;;
63016;SDS011;50274;45.640;11.756;2022-12-07T04:30:23;14.63;;;7.57;;
63016;SDS011;50274;45.640;11.756;2022-12-07T04:32:52;16.27;;;9.95;;
63016;SDS011;50274;45.640;11.756;2022-12-07T04:35:17;14.63;;;8.32;;
63016;SDS011;50274;45.640;11.756;2022-12-07T04:37:43;14.43;;;8.23;;
63016;SDS011;50274;45.640;11.756;2022-12-07T04:40:11;16.30;;;8.82;;
63016;SDS011;50274;45.640;11.756;2022-12-07T04:42:39;15.57;;;8.85;;
63016;SDS011;50274;45.640;11.756;2022-12-07T04:45:05;14.03;;;7.63;;
63016;SDS011;50274;45.640;11.756;2022-12-07T04:47:31;15.33;;;9.07;;
63016;SDS011;50274;45.640;11.756;2022-12-07T04:49:57;16.35;;;7.97;;
63016;SDS011;50274;45.640;11.756;2022-12-07T04:52:23;14.90;;;9.10;;
63016;SDS011;50274;45.640;11.756;2022-12-07T04:54:49;15.60;;;8.87;;
63016;SDS011;50274;45.640;11.756;2022-12-07T04:57:15;14.82;;;8.10;;
63016;SDS011;50274;45.640;11.756;2022-12-07T04:59:40;15.83;;;7.73;;
63016;SDS011;50274;45.640;11.756;2022-12-07T05:02:06;13.90;;;7.97;;
63016;SDS011;50274;45.640;11.756;2022-12-07T05:04:32;14.10;;;7.50;;
63016;SDS011;50274;45.640;11.756;2022-12-07T05:06:58;14.57;;;8.30;;
63016;SDS011;50274;45.640;11.756;2022-12-07T05:09:24;15.25;;;8.48;;
63016;SDS011;50274;45.640;11.756;2022-12-07T05:11:50;13.27;;;7.97;;
63016;SDS011;50274;45.640;11.756;2022-12-07T05:14:16;14.00;;;8.57;;
63016;SDS011;50274;45.640;11.756;2022-12-07T05:16:45;15.02;;;9.00;;
63016;SDS011;50274;45.640;11.756;2022-12-07T05:19:12;14.25;;;8.25;;
63016;SDS011;50274;45.640;11.756;2022-12-07T05:21:39;19.40;;;9.90;;
63016;SDS011;50274;45.640;11.756;2022-12-07T05:24:05;20.70;;;11.52;;
63016;SDS011;50274;45.640;11.756;2022-12-07T05:26:32;19.58;;;10.30;;
63016;SDS011;50274;45.640;11.756;2022-12-07T05:28:58;20.00;;;10.23;;
63016;SDS011;50274;45.640;11.756;2022-12-07T05:31:25;17.25;;;9.40;;
63016;SDS011;50274;45.640;11.756;2022-12-07T05:33:52;17.90;;;10.07;;
63016;SDS011;50274;45.640;11.756;2022-12-07T05:36:20;15.52;;;9.02;;
63016;SDS011;50274;45.640;11.756;2022-12-07T05:38:49;17.75;;;9.90;;
63016;SDS011;50274;45.640;11.756;2022-12-07T05:41:16;16.73;;;10.23;;
63016;SDS011;50274;45.640;11.756;2022-12-07T05:44:04;17.75;;;9.45;;
63016;SDS011;50274;45.640;11.756;2022-12-07T05:46:32;15.43;;;8.33;;
63016;SDS011;50274;45.640;11.756;2022-12-07T05:48:59;14.60;;;8.15;;
63016;SDS011;50274;45.640;11.756;2022-12-07T05:51:25;17.42;;;8.23;;
63016;SDS011;50274;45.640;11.756;2022-12-07T05:53:53;15.27;;;8.60;;
63016;SDS011;50274;45.640;11.756;2022-12-07T05:56:20;14.88;;;8.30;;
63016;SDS011;50274;45.640;11.756;2022-12-07T05:58:46;13.63;;;7.87;;
63016;SDS011;50274;45.640;11.756;2022-12-07T06:01:30;15.88;;;9.52;;
63016;SDS011;50274;45.640;11.756;2022-12-07T06:03:56;14.15;;;8.65;;
63016;SDS011;50274;45.640;11.756;2022-12-07T06:06:22;14.32;;;8.65;;
63016;SDS011;50274;45.640;11.756;2022-12-07T06:08:48;17.63;;;8.13;;
63016;SDS011;50274;45.640;11.756;2022-12-07T06:11:14;16.15;;;8.88;;
63016;SDS011;50274;45.640;11.756;2022-12-07T06:13:58;15.07;;;8.07;;
63016;SDS011;50274;45.640;11.756;2022-12-07T06:16:24;15.02;;;8.40;;
63016;SDS011;50274;45.640;11.756;2022-12-07T06:18:50;13.43;;;7.57;;
63016;SDS011;50274;45.640;11.756;2022-12-07T06:21:18;14.88;;;8.50;;
63016;SDS011;50274;45.640;11.756;2022-12-07T06:23:44;15.20;;;8.52;;
63016;SDS011;50274;45.640;11.756;2022-12-07T06:26:13;16.58;;;8.90;;
63016;SDS011;50274;45.640;11.756;2022-12-07T06:28:39;17.33;;;9.10;;
63016;SDS011;50274;45.640;11.756;2022-12-07T06:31:06;15.70;;;9.68;;
63016;SDS011;50274;45.640;11.756;2022-12-07T06:33:32;15.52;;;7.65;;
63016;SDS011;50274;45.640;11.756;2022-12-07T06:36:00;14.90;;;8.45;;
63016;SDS011;50274;45.640;11.756;2022-12-07T06:38:28;18.20;;;9.63;;
63016;SDS011;50274;45.640;11.756;2022-12-07T06:40:57;14.20;;;8.30;;
63016;SDS011;50274;45.640;11.756;2022-12-07T06:43:25;14.38;;;8.60;;
63016;SDS011;50274;45.640;11.756;2022-12-07T06:45:51;15.57;;;8.73;;
63016;SDS011;50274;45.640;11.756;2022-12-07T06:48:17;15.10;;;8.87;;
63016;SDS011;50274;45.640;11.756;2022-12-07T06:50:45;14.93;;;8.38;;
63016;SDS011;50274;45.640;11.756;2022-12-07T06:53:14;21.67;;;10.13;;
63016;SDS011;50274;45.640;11.756;2022-12-07T06:55:41;13.80;;;6.15;;
63016;SDS011;50274;45.640;11.756;2022-12-07T06:58:07;10.00;;;5.23;;
63016;SDS011;50274;45.640;11.756;2022-12-07T07:00:33;9.95;;;4.88;;
63016;SDS011;50274;45.640;11.756;2022-12-07T07:03:00;9.65;;;4.15;;
63016;SDS011;50274;45.640;11.756;2022-12-07T07:05:26;8.20;;;4.07;;
63016;SDS011;50274;45.640;11.756;2022-12-07T07:07:52;7.57;;;3.50;;
63016;SDS011;50274;45.640;11.756;2022-12-07T07:10:18;7.88;;;3.35;;
63016;SDS011;50274;45.640;11.756;2022-12-07T07:12:44;7.60;;;3.58;;
63016;SDS011;50274;45.640;11.756;2022-12-07T07:15:10;6.83;;;3.13;;
63016;SDS011;50274;45.640;11.756;2022-12-07T07:17:36;6.07;;;3.00;;
63016;SDS011;50274;45.640;11.756;2022-12-07T07:20:02;8.80;;;3.50;;
63016;SDS011;50274;45.640;11.756;2022-12-07T07:22:29;9.82;;;4.35;;
63016;SDS011;50274;45.640;11.756;2022-12-07T07:24:54;9.00;;;4.80;;
63016;SDS011;50274;45.640;11.756;2022-12-07T07:27:20;8.52;;;4.18;;
63016;SDS011;50274;45.640;11.756;2022-12-07T07:29:46;7.97;;;4.03;;
63016;SDS011;50274;45.640;11.756;2022-12-07T07:32:12;9.73;;;5.20;;
63016;SDS011;50274;45.640;11.756;2022-12-07T07:34:38;14.27;;;6.88;;
63016;SDS011;50274;45.640;11.756;2022-12-07T07:37:05;14.20;;;6.70;;
63016;SDS011;50274;45.640;11.756;2022-12-07T07:39:33;16.15;;;8.57;;
63016;SDS011;50274;45.640;11.756;2022-12-07T07:41:59;14.10;;;7.25;;
63016;SDS011;50274;45.640;11.756;2022-12-07T07:44:25;15.10;;;7.70;;
63016;SDS011;50274;45.640;11.756;2022-12-07T07:46:51;12.95;;;6.03;;
63016;SDS011;50274;45.640;11.756;2022-12-07T07:49:16;13.27;;;6.38;;
63016;SDS011;50274;45.640;11.756;2022-12-07T07:51:42;16.00;;;7.67;;
63016;SDS011;50274;45.640;11.756;2022-12-07T07:54:08;16.52;;;8.63;;
63016;SDS011;50274;45.640;11.756;2022-12-07T07:56:34;14.93;;;8.20;;
63016;SDS011;50274;45.640;11.756;2022-12-07T07:59:00;17.70;;;9.50;;
63016;SDS011;50274;45.640;11.756;2022-12-07T08:01:25;20.87;;;9.93;;
63016;SDS011;50274;45.640;11.756;2022-12-07T08:03:51;20.42;;;11.05;;
63016;SDS011;50274;45.640;11.756;2022-12-07T08:06:17;26.30;;;14.00;;
63016;SDS011;50274;45.640;11.756;2022-12-07T08:08:43;33.03;;;15.70;;
63016;SDS011;50274;45.640;11.756;2022-12-07T08:11:09;30.02;;;15.98;;
63016;SDS011;50274;45.640;11.756;2022-12-07T08:13:36;26.92;;;13.93;;
63016;SDS011;50274;45.640;11.756;2022-12-07T08:16:04;22.63;;;12.50;;
63016;SDS011;50274;45.640;11.756;2022-12-07T08:18:51;19.87;;;10.77;;
63016;SDS011;50274;45.640;11.756;2022-12-07T08:21:17;19.80;;;10.65;;
63016;SDS011;50274;45.640;11.756;2022-12-07T08:23:43;19.38;;;10.23;;
63016;SDS011;50274;45.640;11.756;2022-12-07T08:26:10;17.90;;;10.47;;
63016;SDS011;50274;45.640;11.756;2022-12-07T08:28:37;17.40;;;10.20;;
63016;SDS011;50274;45.640;11.756;2022-12-07T08:31:07;18.65;;;10.35;;
63016;SDS011;50274;45.640;11.756;2022-12-07T08:33:36;19.52;;;10.15;;
63016;SDS011;50274;45.640;11.756;2022-12-07T08:36:03;17.67;;;9.97;;
63016;SDS011;50274;45.640;11.756;2022-12-07T08:38:31;18.90;;;10.57;;
63016;SDS011;50274;45.640;11.756;2022-12-07T08:40:59;16.33;;;9.38;;
63016;SDS011;50274;45.640;11.756;2022-12-07T08:43:25;17.88;;;10.80;;
63016;SDS011;50274;45.640;11.756;2022-12-07T08:45:53;19.67;;;11.20;;
63016;SDS011;50274;45.640;11.756;2022-12-07T08:48:59;17.08;;;10.85;;
63016;SDS011;50274;45.640;11.756;2022-12-07T08:51:30;15.88;;;9.27;;
63016;SDS011;50274;45.640;11.756;2022-12-07T08:53:56;17.20;;;8.90;;
63016;SDS011;50274;45.640;11.756;2022-12-07T08:56:26;14.98;;;8.40;;
63016;SDS011;50274;45.640;11.756;2022-12-07T08:58:52;16.53;;;8.63;;
63016;SDS011;50274;45.640;11.756;2022-12-07T09:01:18;15.13;;;8.45;;
63016;SDS011;50274;45.640;11.756;2022-12-07T09:03:44;13.98;;;7.65;;
63016;SDS011;50274;45.640;11.756;2022-12-07T09:06:10;14.67;;;6.93;;
63016;SDS011;50274;45.640;11.756;2022-12-07T09:08:37;13.40;;;7.82;;
63016;SDS011;50274;45.640;11.756;2022-12-07T09:11:12;15.48;;;7.47;;
63016;SDS011;50274;45.640;11.756;2022-12-07T09:13:38;15.63;;;8.23;;
63016;SDS011;50274;45.640;11.756;2022-12-07T09:16:03;15.87;;;8.23;;
63016;SDS011;50274;45.640;11.756;2022-12-07T09:18:29;17.42;;;9.10;;
63016;SDS011;50274;45.640;11.756;2022-12-07T09:20:56;15.05;;;8.60;;
63016;SDS011;50274;45.640;11.756;2022-12-07T09:23:21;18.97;;;8.37;;
63016;SDS011;50274;45.640;11.756;2022-12-07T09:25:47;21.00;;;9.98;;
63016;SDS011;50274;45.640;11.756;2022-12-07T09:28:13;22.25;;;9.48;;
63016;SDS011;50274;45.640;11.756;2022-12-07T09:30:44;18.63;;;9.13;;
63016;SDS011;50274;45.640;11.756;2022-12-07T09:33:12;21.20;;;8.90;;
63016;SDS011;50274;45.640;11.756;2022-12-07T09:35:37;26.65;;;9.88;;
63016;SDS011;50274;45.640;11.756;2022-12-07T09:38:18;33.10;;;12.52;;
63016;SDS011;50274;45.640;11.756;2022-12-07T09:40:54;38.53;;;14.80;;
63016;SDS011;50274;45.640;11.756;2022-12-07T09:43:24;42.70;;;15.87;;
63016;SDS011;50274;45.640;11.756;2022-12-07T09:45:51;43.53;;;15.35;;
63016;SDS011;50274;45.640;11.756;2022-12-07T09:48:21;48.65;;;16.42;;
63016;SDS011;50274;45.640;11.756;2022-12-07T09:51:02;37.05;;;14.43;;
63016;SDS011;50274;45.640;11.756;2022-12-07T09:53:38;33.67;;;13.35;;
63016;SDS011;50274;45.640;11.756;2022-12-07T09:56:04;39.60;;;13.40;;
63016;SDS011;50274;45.640;11.756;2022-12-07T09:58:33;29.88;;;12.10;;
63016;SDS011;50274;45.640;11.756;2022-12-07T10:01:05;22.73;;;9.60;;
63016;SDS011;50274;45.640;11.756;2022-12-07T10:03:35;19.55;;;8.35;;
63016;SDS011;50274;45.640;11.756;2022-12-07T10:06:03;15.25;;;7.30;;
63016;SDS011;50274;45.640;11.756;2022-12-07T10:08:30;17.93;;;7.50;;
63016;SDS011;50274;45.640;11.756;2022-12-07T10:10:57;15.65;;;8.23;;
63016;SDS011;50274;45.640;11.756;2022-12-07T10:16:03;14.50;;;6.47;;
63016;SDS011;50274;45.640;11.756;2022-12-07T10:18:31;13.93;;;6.82;;
63016;SDS011;50274;45.640;11.756;2022-12-07T10:23:33;12.90;;;6.45;;
63016;SDS011;50274;45.640;11.756;2022-12-07T10:25:59;11.98;;;6.45;;
63016;SDS011;50274;45.640;11.756;2022-12-07T10:28:44;10.15;;;5.65;;
63016;SDS011;50274;45.640;11.756;2022-12-07T10:31:17;13.60;;;6.57;;
63016;SDS011;50274;45.640;11.756;2022-12-07T10:33:55;11.35;;;6.18;;
63016;SDS011;50274;45.640;11.756;2022-12-07T10:36:24;12.10;;;6.00;;
63016;SDS011;50274;45.640;11.756;2022-12-07T10:39:23;13.20;;;6.55;;
63016;SDS011;50274;45.640;11.756;2022-12-07T10:41:52;12.05;;;6.00;;
63016;SDS011;50274;45.640;11.756;2022-12-07T10:44:33;11.50;;;6.27;;
63016;SDS011;50274;45.640;11.756;2022-12-07T10:52:42;17.13;;;7.82;;
63016;SDS011;50274;45.640;11.756;2022-12-07T11:08:47;12.25;;;6.43;;
63016;SDS011;50274;45.640;11.756;2022-12-07T11:14:14;10.80;;;5.45;;
63016;SDS011;50274;45.640;11.756;2022-12-07T11:16:57;13.30;;;6.78;;
63016;SDS011;50274;45.640;11.756;2022-12-07T11:25:13;11.20;;;5.27;;
63016;SDS011;50274;45.640;11.756;2022-12-07T11:28:03;11.27;;;5.20;;
63016;SDS011;50274;45.640;11.756;2022-12-07T11:33:27;10.93;;;5.53;;
63016;SDS011;50274;45.640;11.756;2022-12-07T11:36:04;13.27;;;5.45;;
63016;SDS011;50274;45.640;11.756;2022-12-07T11:41:09;7.45;;;3.63;;
63016;SDS011;50274;45.640;11.756;2022-12-07T11:43:42;7.95;;;4.10;;
63016;SDS011;50274;45.640;11.756;2022-12-07T11:46:35;7.07;;;3.50;;
63016;SDS011;50274;45.640;11.756;2022-12-07T11:49:12;7.05;;;3.72;;
63016;SDS011;50274;45.640;11.756;2022-12-07T11:51:57;8.37;;;4.17;;
63016;SDS011;50274;45.640;11.756;2022-12-07T11:54:29;7.60;;;3.60;;
63016;SDS011;50274;45.640;11.756;2022-12-07T11:57:02;8.75;;;3.92;;
63016;SDS011;50274;45.640;11.756;2022-12-07T11:59:32;8.18;;;3.45;;
63016;SDS011;50274;45.640;11.756;2022-12-07T12:02:26;6.63;;;3.00;;
63016;SDS011;50274;45.640;11.756;2022-12-07T12:05:11;5.77;;;2.97;;
63016;SDS011;50274;45.640;11.756;2022-12-07T12:07:43;7.15;;;3.42;;
63016;SDS011;50274;45.640;11.756;2022-12-07T12:10:24;7.43;;;4.00;;
63016;SDS011;50274;45.640;11.756;2022-12-07T12:13:10;8.90;;;3.58;;
63016;SDS011;50274;45.640;11.756;2022-12-07T12:15:51;6.85;;;3.97;;
63016;SDS011;50274;45.640;11.756;2022-12-07T12:21:16;7.28;;;3.85;;
63016;SDS011;50274;45.640;11.756;2022-12-07T12:23:50;7.13;;;3.88;;
63016;SDS011;50274;45.640;11.756;2022-12-07T12:26:31;9.32;;;5.18;;
63016;SDS011;50274;45.640;11.756;2022-12-07T12:28:59;9.60;;;4.47;;
63016;SDS011;50274;45.640;11.756;2022-12-07T12:34:01;8.55;;;4.53;;
63016;SDS011;50274;45.640;11.756;2022-12-07T12:46:47;8.45;;;4.28;;
63016;SDS011;50274;45.640;11.756;2022-12-07T12:54:39;8.80;;;4.53;;
63016;SDS011;50274;45.640;11.756;2022-12-07T12:57:29;8.10;;;4.37;;
63016;SDS011;50274;45.640;11.756;2022-12-07T12:59:57;7.15;;;3.92;;
63016;SDS011;50274;45.640;11.756;2022-12-07T13:05:16;10.63;;;4.78;;
63016;SDS011;50274;45.640;11.756;2022-12-07T13:20:51;7.93;;;4.10;;
63016;SDS011;50274;45.640;11.756;2022-12-07T13:23:28;8.17;;;4.43;;
63016;SDS011;50274;45.640;11.756;2022-12-07T13:26:15;7.47;;;3.90;;
63016;SDS011;50274;45.640;11.756;2022-12-07T13:28:45;7.40;;;4.25;;
63016;SDS011;50274;45.640;11.756;2022-12-07T13:34:01;7.88;;;4.18;;
63016;SDS011;50274;45.640;11.756;2022-12-07T13:36:31;8.50;;;4.80;;
63016;SDS011;50274;45.640;11.756;2022-12-07T13:41:41;8.30;;;4.25;;
63016;SDS011;50274;45.640;11.756;2022-12-07T13:44:09;7.45;;;4.65;;
63016;SDS011;50274;45.640;11.756;2022-12-07T13:49:38;9.97;;;5.50;;
63016;SDS011;50274;45.640;11.756;2022-12-07T13:54:43;8.68;;;4.60;;
63016;SDS011;50274;45.640;11.756;2022-12-07T13:57:30;8.00;;;4.57;;
63016;SDS011;50274;45.640;11.756;2022-12-07T14:03:43;9.80;;;5.40;;
63016;SDS011;50274;45.640;11.756;2022-12-07T14:08:40;8.90;;;4.43;;
63016;SDS011;50274;45.640;11.756;2022-12-07T14:11:09;7.72;;;4.10;;
63016;SDS011;50274;45.640;11.756;2022-12-07T14:19:00;8.50;;;4.93;;
63016;SDS011;50274;45.640;11.756;2022-12-07T14:21:30;8.80;;;5.10;;
63016;SDS011;50274;45.640;11.756;2022-12-07T14:24:11;11.00;;;5.82;;
63016;SDS011;50274;45.640;11.756;2022-12-07T14:26:43;10.57;;;6.05;;
63016;SDS011;50274;45.640;11.756;2022-12-07T14:31:51;12.68;;;7.70;;
63016;SDS011;50274;45.640;11.756;2022-12-07T14:34:19;11.77;;;7.65;;
63016;SDS011;50274;45.640;11.756;2022-12-07T14:36:46;13.38;;;7.30;;
63016;SDS011;50274;45.640;11.756;2022-12-07T14:39:12;12.55;;;7.55;;
63016;SDS011;50274;45.640;11.756;2022-12-07T14:41:38;13.63;;;7.63;;
63016;SDS011;50274;45.640;11.756;2022-12-07T14:44:16;11.95;;;6.78;;
63016;SDS011;50274;45.640;11.756;2022-12-07T14:46:45;12.50;;;7.75;;
63016;SDS011;50274;45.640;11.756;2022-12-07T14:49:11;14.67;;;8.77;;
63016;SDS011;50274;45.640;11.756;2022-12-07T14:51:37;14.13;;;7.78;;
63016;SDS011;50274;45.640;11.756;2022-12-07T14:54:06;11.00;;;6.35;;
63016;SDS011;50274;45.640;11.756;2022-12-07T14:56:38;11.20;;;6.88;;
63016;SDS011;50274;45.640;11.756;2022-12-07T14:59:04;11.83;;;6.43;;
63016;SDS011;50274;45.640;11.756;2022-12-07T15:01:30;12.90;;;7.13;;
63016;SDS011;50274;45.640;11.756;2022-12-07T15:03:56;10.33;;;6.20;;
63016;SDS011;50274;45.640;11.756;2022-12-07T15:06:21;13.40;;;6.28;;
63016;SDS011;50274;45.640;11.756;2022-12-07T15:08:47;11.13;;;5.88;;
63016;SDS011;50274;45.640;11.756;2022-12-07T15:11:14;11.07;;;6.23;;
63016;SDS011;50274;45.640;11.756;2022-12-07T15:13:42;12.55;;;6.75;;
63016;SDS011;50274;45.640;11.756;2022-12-07T15:16:27;11.50;;;6.10;;
63016;SDS011;50274;45.640;11.756;2022-12-07T15:18:53;12.73;;;7.82;;
63016;SDS011;50274;45.640;11.756;2022-12-07T15:21:19;12.47;;;7.10;;
63016;SDS011;50274;45.640;11.756;2022-12-07T15:23:45;12.05;;;6.75;;
63016;SDS011;50274;45.640;11.756;2022-12-07T15:26:11;12.82;;;7.35;;
63016;SDS011;50274;45.640;11.756;2022-12-07T15:28:38;13.43;;;8.05;;
63016;SDS011;50274;45.640;11.756;2022-12-07T15:31:10;14.10;;;7.73;;
63016;SDS011;50274;45.640;11.756;2022-12-07T15:33:40;15.43;;;8.13;;
63016;SDS011;50274;45.640;11.756;2022-12-07T15:36:06;18.88;;;9.23;;
63016;SDS011;50274;45.640;11.756;2022-12-07T15:38:32;14.27;;;9.27;;
63016;SDS011;50274;45.640;11.756;2022-12-07T15:40:58;13.73;;;8.50;;
63016;SDS011;50274;45.640;11.756;2022-12-07T15:43:24;16.00;;;9.38;;
63016;SDS011;50274;45.640;11.756;2022-12-07T15:46:08;14.20;;;8.30;;
63016;SDS011;50274;45.640;11.756;2022-12-07T15:48:34;14.70;;;8.80;;
63016;SDS011;50274;45.640;11.756;2022-12-07T15:51:03;13.57;;;8.15;;
63016;SDS011;50274;45.640;11.756;2022-12-07T15:53:30;14.93;;;8.35;;
63016;SDS011;50274;45.640;11.756;2022-12-07T15:55:57;14.95;;;8.55;;
63016;SDS011;50274;45.640;11.756;2022-12-07T15:58:22;13.47;;;8.70;;
63016;SDS011;50274;45.640;11.756;2022-12-07T16:00:48;17.45;;;9.35;;
63016;SDS011;50274;45.640;11.756;2022-12-07T16:03:14;16.03;;;8.77;;
63016;SDS011;50274;45.640;11.756;2022-12-07T16:05:40;16.67;;;8.93;;
63016;SDS011;50274;45.640;11.756;2022-12-07T16:08:05;17.40;;;9.40;;
63016;SDS011;50274;45.640;11.756;2022-12-07T16:10:31;15.90;;;9.23;;
63016;SDS011;50274;45.640;11.756;2022-12-07T16:12:58;14.52;;;8.20;;
63016;SDS011;50274;45.640;11.756;2022-12-07T16:15:24;15.70;;;9.00;;
63016;SDS011;50274;45.640;11.756;2022-12-07T16:17:50;13.53;;;8.27;;
63016;SDS011;50274;45.640;11.756;2022-12-07T16:20:16;14.35;;;8.45;;
63016;SDS011;50274;45.640;11.756;2022-12-07T16:22:42;16.52;;;9.77;;
63016;SDS011;50274;45.640;11.756;2022-12-07T16:25:08;17.10;;;9.30;;
63016;SDS011;50274;45.640;11.756;2022-12-07T16:27:34;17.48;;;10.05;;
63016;SDS011;50274;45.640;11.756;2022-12-07T16:30:00;15.23;;;8.95;;
63016;SDS011;50274;45.640;11.756;2022-12-07T16:32:26;14.82;;;9.07;;
63016;SDS011;50274;45.640;11.756;2022-12-07T16:34:51;15.33;;;8.40;;
63016;SDS011;50274;45.640;11.756;2022-12-07T16:37:18;13.02;;;7.43;;
63016;SDS011;50274;45.640;11.756;2022-12-07T16:39:43;12.52;;;7.15;;
63016;SDS011;50274;45.640;11.756;2022-12-07T16:42:09;14.97;;;8.03;;
63016;SDS011;50274;45.640;11.756;2022-12-07T16:44:35;16.27;;;8.52;;
63016;SDS011;50274;45.640;11.756;2022-12-07T16:47:01;13.20;;;7.87;;